createdAt,value
2023-05-09T00:02:29.460Z,10.87
2023-05-09T00:07:31.509Z,10.78
2023-05-09T00:12:32.947Z,10.71
2023-05-09T00:17:35.104Z,10.65
2023-05-09T00:22:36.578Z,10.67
2023-05-09T00:27:38.267Z,10.63
2023-05-09T00:32:40.022Z,10.58
2023-05-09T00:37:41.583Z,10.53
2023-05-09T00:42:43.012Z,10.51
2023-05-09T00:47:44.572Z,10.53
2023-05-09T00:52:46.337Z,10.55
2023-05-09T00:57:47.779Z,10.51
2023-05-09T01:02:53.349Z,10.46
2023-05-09T01:08:06.783Z,10.23
2023-05-09T01:13:27.038Z,10.35
2023-05-09T01:18:49.745Z,10.31
2023-05-09T01:24:20.498Z,10.21
2023-05-09T01:29:36.750Z,10.18
2023-05-09T01:34:40.991Z,10.13
2023-05-09T01:39:47.926Z,10.05
2023-05-09T01:44:50.620Z,9.98
2023-05-09T01:49:53.302Z,9.95
2023-05-09T01:54:55.737Z,9.88
2023-05-09T01:59:58.106Z,9.73
2023-05-09T02:05:01.428Z,9.52
2023-05-09T02:10:03.671Z,9.38
2023-05-09T02:15:06.704Z,9.39
2023-05-09T02:20:10.082Z,9.32
2023-05-09T02:25:12.861Z,9.30
2023-05-09T02:30:19.446Z,9.32
2023-05-09T02:35:23.368Z,9.35
2023-05-09T02:40:26.575Z,9.36
2023-05-09T02:45:28.697Z,9.39
2023-05-09T02:50:30.475Z,9.36
2023-05-09T02:55:32.015Z,9.35
2023-05-09T03:00:33.424Z,9.29
2023-05-09T03:05:35.305Z,9.21
2023-05-09T03:10:36.978Z,9.15
2023-05-09T03:15:38.506Z,9.09
2023-05-09T03:20:40.857Z,9.05
2023-05-09T03:25:42.581Z,8.99
2023-05-09T03:30:44.130Z,8.94
2023-05-09T03:35:49.154Z,8.88
2023-05-09T03:40:51.308Z,8.87
2023-05-09T03:45:52.916Z,8.92
2023-05-09T03:50:54.497Z,8.95
2023-05-09T03:55:57.738Z,8.93
2023-05-09T04:01:00.925Z,8.89
2023-05-09T04:06:02.449Z,8.87
2023-05-09T04:11:11.431Z,8.84
2023-05-09T04:16:16.415Z,8.79
2023-05-09T04:21:18.384Z,8.85
2023-05-09T04:26:23.305Z,8.83
2023-05-09T04:31:28.328Z,8.89
2023-05-09T04:36:30.672Z,9.00
2023-05-09T04:41:33.654Z,9.18
2023-05-09T04:46:35.364Z,9.24
2023-05-09T04:51:37.424Z,9.16
2023-05-09T04:56:38.874Z,9.61
2023-05-09T05:01:40.405Z,11.25
2023-05-09T05:06:41.964Z,12.93
2023-05-09T05:11:53.813Z,14.00
2023-05-09T05:17:00.397Z,14.77
2023-05-09T05:22:01.946Z,15.13
2023-05-09T05:27:05.493Z,13.50
2023-05-09T05:32:07.119Z,14.38
2023-05-09T05:37:09.311Z,15.10
2023-05-09T05:42:10.928Z,15.53
2023-05-09T05:47:12.703Z,16.58
2023-05-09T05:52:14.775Z,16.26
2023-05-09T05:57:18.649Z,16.97
2023-05-09T06:02:20.235Z,17.58
2023-05-09T06:07:22.540Z,18.05
2023-05-09T06:12:25.208Z,17.90
2023-05-09T06:17:28.011Z,18.42
2023-05-09T06:22:30.595Z,18.76
2023-05-09T06:27:32.071Z,18.93
2023-05-09T06:32:33.559Z,18.66
2023-05-09T06:37:35.078Z,18.73
2023-05-09T06:42:36.494Z,19.57
2023-05-09T06:47:37.957Z,19.57
2023-05-09T06:52:39.418Z,18.99
2023-05-09T06:57:40.948Z,20.28
2023-05-09T07:02:42.642Z,19.74
2023-05-09T07:07:44.237Z,19.95
2023-05-09T07:12:45.747Z,20.38
2023-05-09T07:17:47.279Z,20.11
2023-05-09T07:22:48.825Z,19.94
2023-05-09T07:27:50.419Z,19.43
2023-05-09T07:32:52.356Z,19.28
2023-05-09T07:37:53.904Z,19.68
2023-05-09T07:42:55.330Z,19.48
2023-05-09T07:47:56.846Z,19.77
2023-05-09T07:52:58.305Z,19.37
2023-05-09T07:57:59.721Z,19.72
2023-05-09T08:03:01.478Z,20.22
2023-05-09T08:08:03.248Z,19.92
2023-05-09T08:13:04.665Z,18.54
2023-05-09T08:18:06.180Z,18.91
2023-05-09T08:23:07.718Z,20.27
2023-05-09T08:28:09.172Z,21.09
2023-05-09T08:33:10.616Z,21.30
2023-05-09T08:38:12.084Z,21.40
2023-05-09T08:43:16.618Z,21.37
2023-05-09T08:48:19.060Z,21.13
2023-05-09T08:53:20.734Z,20.98
2023-05-09T08:58:22.196Z,21.34
2023-05-09T09:03:24.368Z,21.20
2023-05-09T09:08:26.112Z,20.87
2023-05-09T09:13:28.912Z,20.56
2023-05-09T09:18:33.403Z,20.35
2023-05-09T09:23:37.123Z,20.16
2023-05-09T09:28:38.747Z,20.22
2023-05-09T09:33:40.178Z,20.67
2023-05-09T09:38:42.523Z,20.68
2023-05-09T09:43:45.925Z,20.39
2023-05-09T09:48:47.358Z,20.42
2023-05-09T09:53:48.792Z,20.69
2023-05-09T09:58:50.272Z,20.71
2023-05-09T10:03:51.748Z,20.90
2023-05-09T10:08:53.264Z,20.87
2023-05-09T10:13:54.797Z,21.19
2023-05-09T10:18:56.529Z,21.32
2023-05-09T10:23:59.118Z,21.61
2023-05-09T10:29:04.426Z,21.49
2023-05-09T10:34:09.812Z,21.47
2023-05-09T10:39:11.403Z,21.41
2023-05-09T10:44:12.981Z,21.47
2023-05-09T10:49:15.149Z,21.57
2023-05-09T10:54:29.199Z,21.40
2023-05-09T10:59:42.728Z,21.37
2023-05-09T11:04:45.058Z,21.52
2023-05-09T11:09:51.603Z,21.83
2023-05-09T11:14:53.052Z,21.94
2023-05-09T11:19:59.586Z,21.62
2023-05-09T11:25:10.115Z,21.72
2023-05-09T11:30:14.344Z,21.82
2023-05-09T11:35:21.154Z,22.10
2023-05-09T11:40:22.852Z,21.89
2023-05-09T11:45:32.046Z,21.86
2023-05-09T11:50:33.504Z,21.71
2023-05-09T11:55:37.617Z,21.96
2023-05-09T12:00:44.887Z,21.81
2023-05-09T12:05:48.290Z,21.80
2023-05-09T12:10:49.988Z,21.91
2023-05-09T12:15:51.489Z,21.81
2023-05-09T12:20:53.311Z,21.97
2023-05-09T12:25:56.720Z,21.95
2023-05-09T12:30:58.662Z,22.02
2023-05-09T12:36:04.972Z,21.84
2023-05-09T12:41:29.872Z,21.73
2023-05-09T12:46:32.128Z,21.82
2023-05-09T12:51:33.610Z,22.04
2023-05-09T12:56:35.069Z,21.85
2023-05-09T13:01:36.474Z,22.01
2023-05-09T13:06:48.477Z,21.90
2023-05-09T13:11:51.311Z,21.83
2023-05-09T13:16:52.812Z,22.00
2023-05-09T13:21:55.078Z,22.01
2023-05-09T13:26:56.514Z,22.18
2023-05-09T13:31:57.915Z,22.17
2023-05-09T13:36:59.342Z,22.08
2023-05-09T13:42:00.737Z,22.00
2023-05-09T13:47:02.221Z,21.90
2023-05-09T13:52:04.288Z,21.77
2023-05-09T13:57:05.744Z,21.97
2023-05-09T14:02:08.035Z,22.16
2023-05-09T14:07:09.534Z,21.95
2023-05-09T14:12:11.736Z,22.12
2023-05-09T14:17:14.305Z,21.92
2023-05-09T14:22:15.724Z,21.84
2023-05-09T14:27:17.143Z,21.89
2023-05-09T14:32:18.572Z,21.94
2023-05-09T14:37:19.969Z,21.88
2023-05-09T14:42:21.384Z,21.90
2023-05-09T14:47:22.814Z,21.58
2023-05-09T14:52:24.245Z,21.44
2023-05-09T14:57:25.720Z,21.65
2023-05-09T15:02:27.221Z,21.62
2023-05-09T15:07:28.677Z,21.61
2023-05-09T15:12:30.207Z,21.44
2023-05-09T15:17:31.663Z,21.42
2023-05-09T15:22:33.184Z,21.49
2023-05-09T15:27:34.642Z,21.49
2023-05-09T15:32:41.373Z,21.46
2023-05-09T15:37:42.865Z,21.32
2023-05-09T15:42:44.319Z,21.29
2023-05-09T15:47:45.848Z,21.30
2023-05-09T15:52:47.505Z,21.18
2023-05-09T15:57:48.889Z,21.16
2023-05-09T16:02:50.889Z,21.12
2023-05-09T16:07:52.342Z,20.98
2023-05-09T16:12:53.784Z,20.97
2023-05-09T16:17:55.241Z,20.86
2023-05-09T16:22:56.672Z,20.71
2023-05-09T16:27:58.135Z,20.61
2023-05-09T16:32:59.667Z,20.51
2023-05-09T16:38:01.373Z,20.43
2023-05-09T16:43:02.960Z,20.31
2023-05-09T16:48:04.736Z,20.17
2023-05-09T16:53:06.239Z,20.10
2023-05-09T16:58:07.694Z,20.00
2023-05-09T17:03:09.154Z,19.95
2023-05-09T17:08:10.616Z,19.89
2023-05-09T17:13:12.105Z,19.74
2023-05-09T17:18:15.309Z,19.70
2023-05-09T17:23:20.652Z,19.67
2023-05-09T17:28:22.084Z,19.62
2023-05-09T17:33:23.544Z,19.42
2023-05-09T17:38:24.952Z,19.39
2023-05-09T17:43:26.364Z,19.19
2023-05-09T17:48:27.786Z,19.09
2023-05-09T17:53:29.203Z,19.06
2023-05-09T17:58:30.604Z,18.96
2023-05-09T18:03:32.485Z,18.87
2023-05-09T18:08:34.032Z,18.77
2023-05-09T18:13:36.744Z,18.67
2023-05-09T18:18:38.167Z,18.52
2023-05-09T18:23:40.525Z,18.45
2023-05-09T18:28:41.917Z,18.28
2023-05-09T18:33:43.724Z,18.15
2023-05-09T18:38:45.175Z,18.02
2023-05-09T18:43:46.595Z,17.91
2023-05-09T18:48:51.171Z,17.81
2023-05-09T18:53:52.704Z,17.67
2023-05-09T18:58:54.113Z,17.58
2023-05-09T19:03:55.686Z,17.41
2023-05-09T19:08:57.182Z,17.29
2023-05-09T19:13:58.764Z,17.13
2023-05-09T19:19:00.799Z,16.96
2023-05-09T19:24:03.177Z,16.81
2023-05-09T19:29:04.690Z,16.69
2023-05-09T19:34:06.109Z,16.51
2023-05-09T19:39:07.546Z,16.34
2023-05-09T19:44:09.183Z,16.21
2023-05-09T19:49:10.883Z,16.10
2023-05-09T19:54:12.313Z,15.95
2023-05-09T19:59:13.951Z,15.87
2023-05-09T20:04:15.360Z,15.74
2023-05-09T20:09:16.809Z,15.61
2023-05-09T20:14:18.259Z,15.60
2023-05-09T20:19:20.007Z,15.52
2023-05-09T20:24:21.468Z,15.44
2023-05-09T20:29:24.781Z,15.38
2023-05-09T20:34:26.214Z,15.32
2023-05-09T20:39:27.705Z,15.26
2023-05-09T20:44:29.141Z,15.23
2023-05-09T20:49:30.814Z,15.17
2023-05-09T20:54:32.208Z,15.08
2023-05-09T20:59:33.847Z,15.04
2023-05-09T21:04:35.281Z,15.08
2023-05-09T21:09:36.700Z,15.08
2023-05-09T21:14:38.188Z,15.13
2023-05-09T21:19:39.602Z,15.17
2023-05-09T21:24:41.117Z,15.21
2023-05-09T21:29:42.550Z,15.22
2023-05-09T21:34:43.983Z,15.17
2023-05-09T21:39:45.449Z,15.14
2023-05-09T21:44:46.857Z,15.10
2023-05-09T21:49:48.348Z,15.01
2023-05-09T21:54:49.786Z,14.92
2023-05-09T21:59:51.363Z,14.90
2023-05-09T22:04:52.840Z,14.96
2023-05-09T22:09:54.274Z,14.94
2023-05-09T22:14:56.871Z,14.94
2023-05-09T22:19:58.510Z,14.96
2023-05-09T22:24:59.945Z,14.96
2023-05-09T22:30:01.431Z,14.92
2023-05-09T22:35:02.949Z,14.92
2023-05-09T22:40:04.981Z,14.88
2023-05-09T22:45:07.217Z,14.85
2023-05-09T22:50:10.155Z,14.79
2023-05-09T22:55:11.696Z,14.77
2023-05-09T23:00:13.971Z,14.71
2023-05-09T23:05:15.611Z,14.63
2023-05-09T23:10:17.352Z,14.54
2023-05-09T23:15:19.105Z,14.46
2023-05-09T23:20:20.655Z,14.34
2023-05-09T23:25:22.291Z,14.19
2023-05-09T23:30:23.764Z,14.14
2023-05-09T23:35:26.530Z,14.04
2023-05-09T23:40:27.998Z,13.88
2023-05-09T23:45:29.496Z,13.71
2023-05-09T23:50:31.218Z,13.57
2023-05-09T23:55:32.692Z,13.50
